Flight Track Log - Related Links

Times and Time Zones

All times are in EDT time to prevent confusion due to time zone crossing. See the SWA2975 flight status page for this flight to view local times or setup timezone preferences in your user account.


Time Position Orientation Groundspeed Altitude Reporting Facility
EDT Latitude Longitude Course Direction KTS MPH feet Rate Location/Type
Mon 04:22:08 PM 39.8640 -104.6830 270° West 16 18  Level FlightAware ADS-B
Mon 04:22:36 PM 39.8630 -104.6840 218° Southwest 18 21  Level FlightAware ADS-B
Mon 04:22:52 PM 39.8620 -104.6840 180° South  Level FlightAware ADS-B
Mon 04:23:33 PM 39.8610 -104.6840 180° South 18 21  Level FlightAware ADS-B
Mon 04:23:58 PM 39.8580 -104.6840 180° South 22 25  Level FlightAware ADS-B
Mon 04:24:28 PM 39.8550 -104.6840 180° South 23 26  Level FlightAware ADS-B
Mon 04:24:58 PM 39.8520 -104.6840 180° South 25 29  Level FlightAware ADS-B
Mon 04:25:24 PM 39.8480 -104.6840 180° South 28 32  Level FlightAware ADS-B
Mon 04:25:51 PM 39.8450 -104.6840 180° South 28 32  Level FlightAware ADS-B
Mon 04:28:00 PM 39.8748 -104.9221 276° West  Level FlightAware Approximate
Mon 04:29:00 PM 39.8840 -105.0417 276° West  Level FlightAware Approximate
Mon 04:30:00 PM 39.8932 -105.1613 276° West  Level FlightAware Approximate
Mon 04:31:00 PM 39.9000 -105.2811 270° West  Level FlightAware Approximate
Mon 04:32:00 PM 39.9130 -105.4000 278° West  Level FlightAware Approximate
Mon 04:32:58 PM 39.8530 -104.6840 38° Northeast 22 25  Level FlightAware ADS-B
Mon 04:33:10 PM 39.8540 -104.6840 360° North 25 29  Level FlightAware ADS-B
Mon 04:33:43 PM 39.8580 -104.6840 360° North 26 30  Level FlightAware ADS-B
Mon 04:34:07 PM 39.8610 -104.6840 360° North 28 32  Level FlightAware ADS-B
Mon 04:34:37 PM 39.8640 -104.6830 14° North 17 20  Level FlightAware ADS-B
Mon 04:37:00 PM 39.8782 -104.9663 276° West  Level FlightAware Approximate
Mon 04:38:00 PM 39.8874 -105.0859 276° West  Level FlightAware Approximate
Mon 04:39:00 PM 39.8966 -105.2055 276° West  Level FlightAware Approximate
Mon 04:40:00 PM 39.9047 -105.3251 278° West  Level FlightAware Approximate
Mon 04:41:00 PM 39.9167 -105.4442 270° West  Level FlightAware Approximate
Mon 04:42:00 PM 39.9327 -105.5625 281° West  Level FlightAware Approximate
Mon 04:43:00 PM 39.9333 -105.6827 270° West  Level FlightAware Approximate
Mon 04:44:00 PM 39.9465 -105.8017 278° West  Level FlightAware Approximate
Mon 04:45:00 PM 39.9506 -105.9216 278° West  Level FlightAware Approximate
Mon 04:46:00 PM 39.9638 -106.0407 278° West  Level FlightAware Approximate
Mon 04:47:00 PM 39.9799 -106.1592 281° West  Level FlightAware Approximate
Mon 04:48:00 PM 39.9834 -106.2791 270° West  Level FlightAware Approximate
Mon 04:49:00 PM 39.9929 -106.3979 285° West  Level FlightAware Approximate
Mon 04:50:00 PM 40.0017 -106.5170 274° West  Level FlightAware Approximate
Mon 04:51:00 PM 40.0078 -106.6371 274° West  Level FlightAware Approximate
Mon 04:52:00 PM 40.0138 -106.7573 274° West  Level FlightAware Approximate
Mon 04:53:00 PM 40.0167 -106.8776 270° West  Level FlightAware Approximate
Mon 04:54:00 PM 40.0167 -106.9980 270° West  Level FlightAware Approximate
Mon 04:55:00 PM 40.0227 -107.1181 274° West  Level FlightAware Approximate
Mon 04:56:00 PM 40.0296 -107.2382 274° West  Level FlightAware Approximate
Mon 04:57:00 PM 40.0365 -107.3583 274° West  Level FlightAware Approximate
Mon 04:58:00 PM 40.0432 -107.4785 274° West  Level FlightAware Approximate
Mon 04:59:00 PM 40.0498 -107.5986 274° West  Level FlightAware Approximate
Mon 05:00:00 PM 40.0563 -107.7188 274° West  Level FlightAware Approximate
Mon 05:01:00 PM 40.0626 -107.8390 274° West  Level FlightAware Approximate
Mon 05:02:00 PM 40.0683 -107.9593 273° West  Level FlightAware Approximate
Mon 05:03:00 PM 40.0729 -108.0797 273° West  Level FlightAware Approximate
Mon 05:04:00 PM 40.0774 -108.2000 273° West  Level FlightAware Approximate
Mon 05:05:00 PM 40.0818 -108.3204 273° West  Level FlightAware Approximate
Mon 05:06:00 PM 40.0860 -108.4408 273° West  Level FlightAware Approximate
Mon 05:07:00 PM 40.0901 -108.5612 273° West  Level FlightAware Approximate
Mon 05:08:00 PM 40.0941 -108.6817 273° West  Level FlightAware Approximate
Mon 05:09:00 PM 40.0980 -108.8021 272° West  Level FlightAware Approximate
Mon 05:10:00 PM 40.1033 -108.9225 274° West  Level FlightAware Approximate
Mon 05:11:00 PM 40.1104 -109.0427 274° West  Level FlightAware Approximate
Mon 05:12:00 PM 40.1171 -109.1630 272° West  Level FlightAware Approximate
Mon 05:13:00 PM 40.1206 -109.2835 272° West  Level FlightAware Approximate
Mon 05:14:00 PM 40.1241 -109.4040 272° West  Level FlightAware Approximate
Mon 05:15:00 PM 40.1274 -109.5245 272° West  Level FlightAware Approximate
Mon 05:16:00 PM 40.1306 -109.6451 272° West  Level FlightAware Approximate
Mon 05:17:00 PM 40.1333 -109.7656 270° West  Level FlightAware Approximate
Mon 05:18:00 PM 40.1334 -109.8863 270° West  Level FlightAware Approximate
Mon 05:19:00 PM 40.1334 -110.0069 270° West  Level FlightAware Approximate
Mon 05:20:00 PM 40.1333 -110.1275 270° West  Level FlightAware Approximate
Mon 05:21:00 PM 40.1333 -110.2481 270° West  Level FlightAware Approximate
Mon 05:22:00 PM 40.1334 -110.3688 270° West  Level FlightAware Approximate
Mon 05:23:00 PM 40.1334 -110.4894 270° West  Level FlightAware Approximate
Mon 05:24:00 PM 40.1334 -110.6100 270° West  Level FlightAware Approximate
Mon 05:25:00 PM 40.1333 -110.7306 270° West  Level FlightAware Approximate
Mon 05:26:00 PM 40.1333 -110.8512 270° West  Level FlightAware Approximate
Mon 05:27:00 PM 40.1334 -110.9719 270° West  Level FlightAware Approximate
Mon 05:28:00 PM 40.1333 -111.0925 270° West  Level FlightAware Approximate
Mon 05:29:00 PM 40.1326 -111.2131 266° West  Level FlightAware Approximate
Mon 05:30:00 PM 40.1256 -111.3334 266° West  Level FlightAware Approximate
Mon 05:31:00 PM 40.1185 -111.4536 266° West  Level FlightAware Approximate
Mon 05:32:00 PM 40.1304 -111.5699 296° West  Level FlightAware Approximate
Mon 05:33:00 PM 40.1667 -111.6796 270° West  Level FlightAware Approximate
Mon 05:34:00 PM 40.2350 -111.7586 318° Northwest  Level FlightAware Approximate
Mon 05:35:00 PM 40.3045 -111.8378 323° Northwest  Level FlightAware Approximate
Mon 05:36:00 PM 40.3778 -111.9112 323° Northwest  Level FlightAware Approximate
Mon 05:37:00 PM 40.4671 -111.9333 North  Level FlightAware Approximate
Mon 05:38:00 PM 40.5592 -111.9366 355° North  Level FlightAware Approximate
Mon 05:39:00 PM 40.6510 -111.9480 355° North  Level FlightAware Approximate
Mon 05:40:00 PM 40.7408 -111.9667 North  Level FlightAware Approximate
Mon 05:41:00 PM 40.7833 -111.9667 North  Level FlightAware Approximate
Mon 05:42:00 PM 40.7884 -111.9778 North  Level Estimated
Mon 05:43:00 PM 40.7884 -111.9778 North  Level Estimated
Mon 05:44:00 PM 40.7884 -111.9778 North  Level Estimated

Login

Don't have an account? Register now (free) for customized features, flight alerts, and more!